METAR UND TAF INFORMATION

METAR FOR LIEO
ADDS - METARS form results

(0304 UTC 26 June 2022)
Data provider http://aviationweather.gov/metar/data/
 
METAR text: LIEO 260250Z AUTO VRB02KT 9999 NCD 19/14 Q1012
Conditions at: LIEO (OLBIA/COSTA SMER, IT) observed 0250 UTC 26 June 2022
Temperature: 19.0°C (66°F)
Dewpoint: 14.0°C (57°F) [RH = 73%]
Pressure (altimeter): 29.88 inches Hg (1012.0 mb)
Winds: variable direction winds at 2 MPH (2 knots; 1.0 m/s)
Visibility: 6 or more miles (10+ km)
Ceiling: at least 12,000 feet AGL
Clouds: sky clear below 12,000 feet AGL
Weather: no significant weather observed at this time

METAR text: LIEO 260220Z AUTO VRB01KT 9999 SCT160/// 20/14 Q1012
Conditions at: LIEO (OLBIA/COSTA SMER, IT) observed 0220 UTC 26 June 2022
Temperature: 20.0°C (68°F)
Dewpoint: 14.0°C (57°F) [RH = 68%]
Pressure (altimeter): 29.88 inches Hg (1012.0 mb)
Winds: variable direction winds at 1 MPH (1 knots; 0.5 m/s)
Visibility: 6 or more miles (10+ km)
Ceiling: at least 12,000 feet AGL
Clouds: scattered clouds at 16000 feet AGL
Weather: no significant weather observed at this time

Forecast for: LIEO (OLBIA/COSTA SMER, IT)
Text: TAF LIEO 252300Z 2600/2624 VRB05KT 9999 FEW060
Forecast period: 0000 to 0800 UTC 26 June 2022
Forecast type: FROM: standard forecast or significant change
Winds: variable direction winds at 6 MPH (5 knots; 2.6 m/s)
Visibility: 6 or more miles (10+ km)
Ceiling: at least 12,000 feet AGL
Clouds: few clouds at 6000 feet AGL
Weather: no significant weather forecast for this period
Text: BECMG 2608/2610 08013KT
Forecast period: 0800 to 1700 UTC 26 June 2022
Forecast type: BECOMING: Conditions expected to become as follows by 1000 UTC 26 June 2022
Winds: from the E (80 degrees) at 15 MPH (13 knots; 6.7 m/s)
Visibility: 6 or more miles (10+ km)
Ceiling: at least 12,000 feet AGL
Clouds: few clouds at 6000 feet AGL
Weather: no significant weather forecast for this period
Text: BECMG 2617/2619 VRB04KT
Forecast period: 1700 UTC 26 June 2022 to 0000 UTC 27 June 2022
Forecast type: BECOMING: Conditions expected to become as follows by 1900 UTC 26 June 2022
Winds: variable direction winds at 5 MPH (4 knots; 2.1 m/s)
Visibility: 6 or more miles (10+ km)
Ceiling: at least 12,000 feet AGL
Clouds: few clouds at 6000 feet AGL
Weather: no significant weather forecast for this period

 FLUGHAFENKARTE

 RUNWAY INFORMATION
Runway 05 Runway length 8025 ft Runway width 148 ft
Runway elevation 35 ft Runway displaced threshold 805 ft Runway heading 53
Runway 23 Runway length 8025 ft Runway width 148 ft
Runway elevation 19 ft Runway displaced threshold 495 ft Runway heading 233

 AIRPORT FREQUENCIES
Type APP Name OLBIA RADA Frequency 125.95 MHZ
Type ATIS Name ATIS Frequency 113.9 MHZ
Type TWR Name OLBIA TWR Frequency 118.975 MHZ

 AIRPORT NEAR NAVIGATION AIDS
Type VOR-DME Name Olbia Costa Smeralda Frequency 113900 KHZ
Type NDB Name Olbia Costa Smeralda Frequency 357 KHZ